createdAt,value
2023-04-05T00:00:05.709Z,14.75
2023-04-05T00:02:36.612Z,11.25
2023-04-05T00:05:08.146Z,11.75
2023-04-05T00:07:38.663Z,12.50
2023-04-05T00:10:09.409Z,14.50
2023-04-05T00:12:40.853Z,9.50
2023-04-05T00:15:15.030Z,14.00
2023-04-05T00:20:39.091Z,14.50
2023-04-05T00:23:10.130Z,12.75
2023-04-05T00:25:40.472Z,13.25
2023-04-05T00:28:11.994Z,13.25
2023-04-05T00:30:43.421Z,17.00
2023-04-05T00:33:14.877Z,16.25
2023-04-05T00:35:46.419Z,13.50
2023-04-05T00:38:16.806Z,13.00
2023-04-05T00:40:47.913Z,13.00
2023-04-05T00:43:23.684Z,16.75
2023-04-05T00:45:57.922Z,12.00
2023-04-05T00:48:29.686Z,14.00
2023-04-05T00:51:00.210Z,11.75
2023-04-05T00:53:31.715Z,15.25
2023-04-05T00:56:03.710Z,15.25
2023-04-05T00:58:35.799Z,10.25
2023-04-05T01:01:30.040Z,15.75
2023-04-05T01:04:03.752Z,18.00
2023-04-05T01:06:40.710Z,16.25
2023-04-05T01:09:34.873Z,18.50
2023-04-05T01:12:10.307Z,14.00
2023-04-05T01:14:49.647Z,10.25
2023-04-05T01:17:23.146Z,15.25
2023-04-05T01:19:56.454Z,17.00
2023-04-05T01:23:02.500Z,19.25
2023-04-05T01:25:52.173Z,17.50
2023-04-05T01:28:48.406Z,18.25
2023-04-05T01:31:24.572Z,19.25
2023-04-05T01:34:18.157Z,14.25
2023-04-05T01:39:40.921Z,24.00
2023-04-05T01:42:11.489Z,23.50
2023-04-05T01:44:42.534Z,24.00
2023-04-05T01:47:13.094Z,24.25
2023-04-05T01:49:43.979Z,18.50
2023-04-05T01:52:15.000Z,24.25
2023-04-05T01:54:45.564Z,20.25
2023-04-05T01:57:16.060Z,23.75
2023-04-05T01:59:46.896Z,21.25
2023-04-05T02:02:17.532Z,19.75
2023-04-05T02:04:48.036Z,18.75
2023-04-05T02:07:19.774Z,15.75
2023-04-05T02:09:50.216Z,17.00
2023-04-05T02:12:20.676Z,15.50
2023-04-05T02:14:51.718Z,18.75
2023-04-05T02:17:22.944Z,18.50
2023-04-05T02:19:53.435Z,14.25
2023-04-05T02:22:25.370Z,16.50
2023-04-05T02:24:55.870Z,19.75
2023-04-05T02:27:26.555Z,15.25
2023-04-05T02:29:58.389Z,19.50
2023-04-05T02:32:28.908Z,21.75
2023-04-05T02:35:03.528Z,22.00
2023-04-05T02:37:34.716Z,20.50
2023-04-05T02:40:09.257Z,26.00
2023-04-05T02:42:40.737Z,27.50
2023-04-05T02:45:11.528Z,28.50
2023-04-05T02:47:48.768Z,27.00
2023-04-05T02:50:19.615Z,26.00
2023-04-05T02:52:52.871Z,25.00
2023-04-05T02:55:23.419Z,26.25
2023-04-05T02:57:53.956Z,26.00
2023-04-05T03:00:24.639Z,24.25
2023-04-05T03:02:56.987Z,24.75
2023-04-05T03:05:28.638Z,26.00
2023-04-05T03:08:00.462Z,27.75
2023-04-05T03:10:32.282Z,25.50
2023-04-05T03:13:02.978Z,26.75
2023-04-05T03:15:34.027Z,27.25
2023-04-05T03:18:05.363Z,28.50
2023-04-05T03:20:37.714Z,28.25
2023-04-05T03:23:09.087Z,26.00
2023-04-05T03:25:39.857Z,28.25
2023-04-05T03:28:11.138Z,31.25
2023-04-05T03:30:41.777Z,30.00
2023-04-05T03:33:12.834Z,26.25
2023-04-05T03:35:43.906Z,29.75
2023-04-05T03:38:15.013Z,29.25
2023-04-05T03:40:46.852Z,27.00
2023-04-05T03:43:18.165Z,28.75
2023-04-05T03:45:51.346Z,26.00
2023-04-05T03:48:22.096Z,26.00
2023-04-05T03:50:52.678Z,26.00
2023-04-05T03:53:26.546Z,23.50
2023-04-05T03:56:03.307Z,24.75
2023-04-05T03:58:35.284Z,24.75
2023-04-05T04:01:05.805Z,21.50
2023-04-05T04:03:38.217Z,20.25
2023-04-05T04:06:11.315Z,21.00
2023-04-05T04:08:45.726Z,26.00
2023-04-05T04:11:15.948Z,13.00
2023-04-05T04:13:48.145Z,25.00
2023-04-05T04:16:18.984Z,24.50
2023-04-05T04:18:59.868Z,22.00
2023-04-05T04:21:30.467Z,21.75
2023-04-05T04:24:01.427Z,22.25
2023-04-05T04:26:34.493Z,21.50
2023-04-05T04:29:07.764Z,19.50
2023-04-05T04:31:41.040Z,21.00
2023-04-05T04:34:16.369Z,20.00
2023-04-05T04:36:48.996Z,20.25
2023-04-05T04:39:29.133Z,22.00
2023-04-05T04:41:56.465Z,20.25
2023-04-05T04:44:31.528Z,19.00
2023-04-05T04:47:02.586Z,19.50
2023-04-05T04:49:36.254Z,21.25
2023-04-05T04:52:09.340Z,21.50
2023-04-05T04:54:39.940Z,19.50
2023-04-05T04:57:11.740Z,22.00
2023-04-05T04:59:44.459Z,17.75
2023-04-05T05:02:15.592Z,10.25
2023-04-05T05:04:50.040Z,21.00
2023-04-05T05:07:22.113Z,19.75
2023-04-05T05:10:00.935Z,19.50
2023-04-05T05:12:32.011Z,22.00
2023-04-05T05:15:02.406Z,19.75
2023-04-05T05:17:33.179Z,21.25
2023-04-05T05:20:04.338Z,18.50
2023-04-05T05:22:35.173Z,22.75
2023-04-05T05:25:09.458Z,23.00
2023-04-05T05:27:41.061Z,23.75
2023-04-05T05:30:14.916Z,21.75
2023-04-05T05:32:45.960Z,22.00
2023-04-05T05:35:23.759Z,18.00
2023-04-05T05:37:54.249Z,16.00
2023-04-05T05:40:32.018Z,10.25
2023-04-05T05:43:05.582Z,18.25
2023-04-05T05:45:36.910Z,15.75
2023-04-05T05:48:07.596Z,17.50
2023-04-05T05:50:38.068Z,15.00
2023-04-05T05:53:08.926Z,16.00
2023-04-05T05:55:41.592Z,21.25
2023-04-05T05:58:36.194Z,19.50
2023-04-05T06:01:07.143Z,20.50
2023-04-05T06:03:39.514Z,16.00
2023-04-05T06:06:10.251Z,16.25
2023-04-05T06:08:51.209Z,21.00
2023-04-05T06:11:23.846Z,21.00
2023-04-05T06:13:56.979Z,16.00
2023-04-05T06:16:31.981Z,10.75
2023-04-05T06:19:03.088Z,18.25
2023-04-05T06:21:35.212Z,18.25
2023-04-05T06:24:06.906Z,16.75
2023-04-05T06:26:37.694Z,11.00
2023-04-05T06:29:08.748Z,14.75
2023-04-05T06:31:39.796Z,19.75
2023-04-05T06:34:10.178Z,19.00
2023-04-05T06:36:52.947Z,20.00
2023-04-05T06:39:21.910Z,17.00
2023-04-05T06:41:52.203Z,21.25
2023-04-05T06:44:23.005Z,19.75
2023-04-05T06:46:53.518Z,16.80
2023-04-05T06:49:24.166Z,17.75
2023-04-05T06:52:04.232Z,18.20
2023-04-05T06:54:37.153Z,17.50
2023-04-05T06:57:07.812Z,16.60
2023-04-05T06:59:38.194Z,18.00
2023-04-05T07:02:09.018Z,15.00
2023-04-05T07:04:40.393Z,19.50
2023-04-05T07:07:10.872Z,11.20
2023-04-05T07:09:41.910Z,15.60
2023-04-05T07:12:12.443Z,17.00
2023-04-05T07:14:43.157Z,16.60
2023-04-05T07:17:15.377Z,16.00
2023-04-05T07:19:46.234Z,13.20
2023-04-05T07:22:26.183Z,14.00
2023-04-05T07:28:00.926Z,13.60
2023-04-05T07:30:40.253Z,12.80
2023-04-05T07:33:09.870Z,10.80
2023-04-05T07:35:40.527Z,15.60
2023-04-05T07:38:12.561Z,14.00
2023-04-05T07:40:43.917Z,13.80
2023-04-05T07:43:16.864Z,15.60
2023-04-05T07:45:46.978Z,14.20
2023-04-05T07:48:17.732Z,15.20
2023-04-05T07:50:48.919Z,16.40
2023-04-05T07:53:26.807Z,13.40
2023-04-05T07:56:05.829Z,16.80
2023-04-05T07:58:39.708Z,14.00
2023-04-05T08:01:14.721Z,16.20
2023-04-05T08:03:48.737Z,13.80
2023-04-05T08:06:24.875Z,13.40
2023-04-05T08:08:55.327Z,12.40
2023-04-05T08:11:26.044Z,11.60
2023-04-05T08:14:04.777Z,7.00
2023-04-05T08:16:34.523Z,8.60
2023-04-05T08:19:10.811Z,13.60
2023-04-05T08:21:41.073Z,14.80
2023-04-05T08:24:14.627Z,10.00
2023-04-05T08:26:47.485Z,13.00
2023-04-05T08:29:20.634Z,11.40
2023-04-05T08:31:51.071Z,16.20
2023-04-05T08:34:23.921Z,13.20
2023-04-05T08:37:04.099Z,11.00
2023-04-05T08:39:36.184Z,8.40
2023-04-05T08:42:17.843Z,13.80
2023-04-05T08:44:52.016Z,14.00
2023-04-05T08:47:29.607Z,14.00
2023-04-05T08:50:04.088Z,13.20
2023-04-05T08:52:39.964Z,12.80
2023-04-05T08:55:10.609Z,15.60
2023-04-05T08:57:43.960Z,10.60
2023-04-05T09:00:15.381Z,8.20
2023-04-05T09:02:49.498Z,8.60
2023-04-05T09:05:20.889Z,12.40
2023-04-05T09:07:52.244Z,11.60
2023-04-05T09:10:30.786Z,13.00
2023-04-05T09:13:10.729Z,12.80
2023-04-05T09:15:41.601Z,13.00
2023-04-05T09:18:23.220Z,12.80
2023-04-05T09:20:44.167Z,9.00
2023-04-05T09:23:15.517Z,9.60
2023-04-05T09:25:46.191Z,9.40
2023-04-05T09:28:18.201Z,13.80
2023-04-05T09:30:51.035Z,10.60
2023-04-05T09:33:32.188Z,11.00
2023-04-05T09:36:03.722Z,16.00
2023-04-05T09:38:45.897Z,9.20
2023-04-05T09:41:16.373Z,8.50
2023-04-05T09:43:46.972Z,10.75
2023-04-05T09:46:40.256Z,7.25
2023-04-05T09:49:11.398Z,12.50
2023-04-05T09:51:41.852Z,9.40
2023-04-05T09:54:13.021Z,8.25
2023-04-05T09:56:46.271Z,8.75
2023-04-05T09:59:18.067Z,11.75
2023-04-05T10:01:56.636Z,15.75
2023-04-05T10:04:29.393Z,8.25
2023-04-05T10:07:00.167Z,10.50
2023-04-05T10:09:35.577Z,16.00
2023-04-05T10:12:09.863Z,14.00
2023-04-05T10:14:42.030Z,14.75
2023-04-05T10:17:45.910Z,15.00
2023-04-05T10:20:24.184Z,13.25
2023-04-05T10:23:03.920Z,11.25
2023-04-05T10:26:01.444Z,10.50
2023-04-05T10:28:40.319Z,12.50
2023-04-05T10:31:38.151Z,4.25
2023-04-05T10:34:09.372Z,10.25
2023-04-05T10:36:52.272Z,13.50
2023-04-05T10:39:28.839Z,13.75
2023-04-05T10:42:10.290Z,12.00
2023-04-05T10:44:46.769Z,12.00
2023-04-05T10:47:20.142Z,13.50
2023-04-05T10:49:53.592Z,12.50
2023-04-05T10:52:24.359Z,12.00
2023-04-05T10:54:57.265Z,12.50
2023-04-05T10:57:29.457Z,10.00
2023-04-05T11:00:01.523Z,13.00
2023-04-05T11:02:33.056Z,5.50
2023-04-05T11:05:06.775Z,10.50
2023-04-05T11:07:44.976Z,14.00
2023-04-05T11:10:21.513Z,9.00
2023-04-05T11:12:58.327Z,7.75
2023-04-05T11:15:30.706Z,7.50
2023-04-05T11:18:12.669Z,14.50
2023-04-05T11:20:46.298Z,11.75
2023-04-05T11:23:20.772Z,12.75
2023-04-05T11:25:56.782Z,11.50
2023-04-05T11:28:30.004Z,10.00
2023-04-05T11:31:14.199Z,11.25
2023-04-05T11:33:59.240Z,13.00
2023-04-05T11:36:33.051Z,11.50
2023-04-05T11:39:23.860Z,11.50
2023-04-05T11:41:57.263Z,9.50
2023-04-05T11:44:29.566Z,13.50
2023-04-05T11:47:09.770Z,11.00
2023-04-05T11:49:43.040Z,9.50
2023-04-05T11:52:21.798Z,9.50
2023-04-05T11:55:03.946Z,10.25
2023-04-05T11:57:47.761Z,10.00
2023-04-05T12:00:23.929Z,8.00
2023-04-05T12:03:04.871Z,9.50
2023-04-05T12:05:50.963Z,8.50
2023-04-05T12:08:29.589Z,10.50
2023-04-05T12:11:00.828Z,8.00
2023-04-05T12:13:34.858Z,8.25
2023-04-05T12:16:08.229Z,9.50
2023-04-05T12:18:42.076Z,11.50
2023-04-05T12:21:13.007Z,8.75
2023-04-05T12:23:43.690Z,4.00
2023-04-05T12:26:16.535Z,10.25
2023-04-05T12:28:56.334Z,13.50
2023-04-05T12:31:44.746Z,10.75
2023-04-05T12:34:17.667Z,8.50
2023-04-05T12:36:48.850Z,14.75
2023-04-05T12:39:20.849Z,10.00
2023-04-05T12:42:02.155Z,9.75
2023-04-05T12:47:59.236Z,7.00
2023-04-05T12:50:32.153Z,14.00
2023-04-05T12:53:08.425Z,11.75
2023-04-05T12:55:44.837Z,9.50
2023-04-05T12:58:17.556Z,10.75
2023-04-05T13:00:49.767Z,11.00
2023-04-05T13:03:31.233Z,10.50
2023-04-05T13:06:02.401Z,9.50
2023-04-05T13:08:34.998Z,12.75
2023-04-05T13:11:07.259Z,11.50
2023-04-05T13:13:38.270Z,13.25
2023-04-05T13:16:10.533Z,9.00
2023-04-05T13:18:41.100Z,11.00
2023-04-05T13:21:12.215Z,6.75
2023-04-05T13:23:47.121Z,9.00
2023-04-05T13:26:21.130Z,13.50
2023-04-05T13:28:51.641Z,10.00
2023-04-05T13:31:27.162Z,10.50
2023-04-05T13:34:03.246Z,8.75
2023-04-05T13:36:37.243Z,3.00
2023-04-05T13:39:21.435Z,11.25
2023-04-05T13:41:53.521Z,8.50
2023-04-05T13:44:24.719Z,5.50
2023-04-05T13:46:55.108Z,12.75
2023-04-05T13:49:25.564Z,6.25
2023-04-05T13:51:56.224Z,11.25
2023-04-05T13:54:32.208Z,13.50
2023-04-05T13:57:05.133Z,10.50
2023-04-05T13:59:38.024Z,9.00
2023-04-05T14:02:08.791Z,10.00
2023-04-05T14:04:42.615Z,10.50
2023-04-05T14:07:14.860Z,6.75
2023-04-05T14:09:45.904Z,8.00
2023-04-05T14:12:21.063Z,9.25
2023-04-05T14:14:53.255Z,13.50
2023-04-05T14:17:24.368Z,12.00
2023-04-05T14:19:56.221Z,11.00
2023-04-05T14:22:26.636Z,13.00
2023-04-05T14:24:57.149Z,4.25
2023-04-05T14:27:27.652Z,13.00
2023-04-05T14:29:58.172Z,10.75
2023-04-05T14:32:29.404Z,12.50
2023-04-05T14:35:04.152Z,12.25
2023-04-05T14:37:34.927Z,11.25
2023-04-05T14:40:05.943Z,13.25
2023-04-05T14:42:50.399Z,11.75
2023-04-05T14:45:22.039Z,10.25
2023-04-05T14:47:53.590Z,9.75
2023-04-05T14:50:25.546Z,8.25
2023-04-05T14:53:00.315Z,10.75
2023-04-05T14:55:30.960Z,8.00
2023-04-05T14:58:02.296Z,14.00
2023-04-05T15:00:36.685Z,13.75
2023-04-05T15:03:26.091Z,11.75
2023-04-05T15:06:03.962Z,13.00
2023-04-05T15:08:35.294Z,14.25
2023-04-05T15:11:05.847Z,12.50
2023-04-05T15:13:39.617Z,12.50
2023-04-05T15:16:10.125Z,14.25
2023-04-05T15:18:42.266Z,16.00
2023-04-05T15:21:13.179Z,13.75
2023-04-05T15:23:46.630Z,8.50
2023-04-05T15:26:21.482Z,13.25
2023-04-05T15:29:04.388Z,15.00
2023-04-05T15:31:38.328Z,12.00
2023-04-05T15:34:09.164Z,13.25
2023-04-05T15:36:58.482Z,13.25
2023-04-05T15:39:29.259Z,13.25
2023-04-05T15:42:02.623Z,12.25
2023-04-05T15:44:34.431Z,9.25
2023-04-05T15:47:05.264Z,12.75
2023-04-05T15:49:36.328Z,6.25
2023-04-05T15:52:07.217Z,13.75
2023-04-05T15:54:55.477Z,9.75
2023-04-05T15:57:28.216Z,12.00
2023-04-05T16:00:04.980Z,12.25
2023-04-05T16:02:41.846Z,12.25
2023-04-05T16:05:13.148Z,13.00
2023-04-05T16:07:46.317Z,12.50
2023-04-05T16:10:21.468Z,13.00
2023-04-05T16:12:55.264Z,8.25
2023-04-05T16:15:27.136Z,12.75
2023-04-05T16:18:00.612Z,13.50
2023-04-05T16:20:35.100Z,14.00
2023-04-05T16:23:11.236Z,14.25
2023-04-05T16:25:42.002Z,14.25
2023-04-05T16:28:13.087Z,12.00
2023-04-05T16:30:50.104Z,13.75
2023-04-05T16:33:25.742Z,14.75
2023-04-05T16:39:05.572Z,16.00
2023-04-05T16:41:32.158Z,15.50
2023-04-05T16:44:03.641Z,13.25
2023-04-05T16:46:34.819Z,14.75
2023-04-05T16:49:07.027Z,12.25
2023-04-05T16:51:39.042Z,13.00
2023-04-05T16:54:13.579Z,14.75
2023-04-05T16:56:44.283Z,14.00
2023-04-05T16:59:18.679Z,12.75
2023-04-05T17:02:00.549Z,15.50
2023-04-05T17:07:30.082Z,11.50
2023-04-05T17:10:06.526Z,17.25
2023-04-05T17:12:55.099Z,14.50
2023-04-05T17:15:25.725Z,15.50
2023-04-05T17:17:58.013Z,17.75
2023-04-05T17:20:35.426Z,12.25
2023-04-05T17:23:09.909Z,11.25
2023-04-05T17:25:43.224Z,13.25
2023-04-05T17:28:15.649Z,14.50
2023-04-05T17:30:53.313Z,13.75
2023-04-05T17:33:27.503Z,13.75
2023-04-05T17:36:00.626Z,15.75
2023-04-05T17:38:34.398Z,14.25
2023-04-05T17:41:23.154Z,10.25
2023-04-05T17:43:55.193Z,11.75
2023-04-05T17:46:37.795Z,15.75
2023-04-05T17:49:01.733Z,12.75
2023-04-05T17:51:35.370Z,12.75
2023-04-05T17:54:09.863Z,14.00
2023-04-05T17:56:51.417Z,11.00
2023-04-05T17:59:22.203Z,13.75
2023-04-05T18:01:59.363Z,10.75
2023-04-05T18:04:30.272Z,18.50
2023-04-05T18:07:01.113Z,18.00
2023-04-05T18:09:32.863Z,14.25
2023-04-05T18:12:03.630Z,14.75
2023-04-05T18:14:35.402Z,13.50
2023-04-05T18:17:08.084Z,18.25
2023-04-05T18:19:38.939Z,16.00
2023-04-05T18:22:10.239Z,14.75
2023-04-05T18:24:42.605Z,15.00
2023-04-05T18:27:19.253Z,13.75
2023-04-05T18:30:18.523Z,12.75
2023-04-05T18:33:15.153Z,12.50
2023-04-05T18:35:52.929Z,14.25
2023-04-05T18:38:34.395Z,13.50
2023-04-05T18:41:15.168Z,8.75
2023-04-05T18:44:06.612Z,14.00
2023-04-05T18:46:44.646Z,14.50
2023-04-05T18:49:22.038Z,13.00
2023-04-05T18:51:53.188Z,11.75
2023-04-05T18:54:24.275Z,13.50
2023-04-05T18:57:02.364Z,13.00
2023-04-05T18:59:33.004Z,13.50
2023-04-05T19:02:11.707Z,7.00
2023-04-05T19:04:45.922Z,15.00
2023-04-05T19:07:16.977Z,14.50
2023-04-05T19:09:47.596Z,12.25
2023-04-05T19:12:23.462Z,14.25
2023-04-05T19:14:56.227Z,13.25
2023-04-05T19:17:27.360Z,15.75
2023-04-05T19:20:02.136Z,15.25
2023-04-05T19:22:33.395Z,10.50
2023-04-05T19:25:05.127Z,13.50
2023-04-05T19:27:37.824Z,13.00
2023-04-05T19:33:20.216Z,11.50
2023-04-05T19:35:51.449Z,13.25
2023-04-05T19:38:25.708Z,11.25
2023-04-05T19:40:56.987Z,12.50
2023-04-05T19:43:27.969Z,12.00
2023-04-05T19:46:01.332Z,6.50
2023-04-05T19:48:44.323Z,11.50
2023-04-05T19:51:16.397Z,12.00
2023-04-05T19:53:49.422Z,12.50
2023-04-05T19:56:26.846Z,5.00
2023-04-05T19:59:03.912Z,12.25
2023-04-05T20:01:37.768Z,11.25
2023-04-05T20:04:17.102Z,10.00
2023-04-05T20:06:50.343Z,12.75
2023-04-05T20:09:22.792Z,11.75
2023-04-05T20:12:13.185Z,11.75
2023-04-05T20:14:45.853Z,12.00
2023-04-05T20:17:19.035Z,12.00
2023-04-05T20:19:58.380Z,7.00
2023-04-05T20:22:33.221Z,13.00
2023-04-05T20:25:16.012Z,12.00
2023-04-05T20:27:48.767Z,12.25
2023-04-05T20:30:19.569Z,10.50
2023-04-05T20:32:50.742Z,12.00
2023-04-05T20:35:36.205Z,13.75
2023-04-05T20:38:07.020Z,14.00
2023-04-05T20:40:40.283Z,12.00
2023-04-05T20:43:11.502Z,18.00
2023-04-05T20:45:42.787Z,13.75
2023-04-05T20:48:13.437Z,15.00
2023-04-05T20:50:44.180Z,16.75
2023-04-05T20:53:14.934Z,14.00
2023-04-05T20:55:45.367Z,9.75
2023-04-05T20:58:16.571Z,15.00
2023-04-05T21:00:48.427Z,13.75
2023-04-05T21:03:19.732Z,15.50
2023-04-05T21:05:50.345Z,16.50
2023-04-05T21:08:20.876Z,12.00
2023-04-05T21:10:52.568Z,12.00
2023-04-05T21:13:25.313Z,15.75
2023-04-05T21:15:59.368Z,14.00
2023-04-05T21:18:30.369Z,20.00
2023-04-05T21:21:00.964Z,18.25
2023-04-05T21:23:37.168Z,17.50
2023-04-05T21:26:09.285Z,13.75
2023-04-05T21:28:40.414Z,19.50
2023-04-05T21:31:11.098Z,14.00
2023-04-05T21:33:41.580Z,14.50
2023-04-05T21:36:12.095Z,17.25
2023-04-05T21:38:42.840Z,20.25
2023-04-05T21:41:15.666Z,16.00
2023-04-05T21:43:46.570Z,19.50
2023-04-05T21:46:18.830Z,18.25
2023-04-05T21:48:49.978Z,18.50
2023-04-05T21:51:20.755Z,19.25
2023-04-05T21:53:52.022Z,16.25
2023-04-05T21:56:26.950Z,16.00
2023-04-05T21:59:00.459Z,16.75
2023-04-05T22:01:33.177Z,13.50
2023-04-05T22:04:04.372Z,14.00
2023-04-05T22:06:36.200Z,18.00
2023-04-05T22:09:08.188Z,15.25
2023-04-05T22:11:38.800Z,14.75
2023-04-05T22:14:11.800Z,15.00
2023-04-05T22:16:43.342Z,16.25
2023-04-05T22:19:14.818Z,14.50
2023-04-05T22:21:45.333Z,14.50
2023-04-05T22:24:16.100Z,14.25
2023-04-05T22:26:47.142Z,14.25
2023-04-05T22:29:17.836Z,13.25
2023-04-05T22:31:49.500Z,13.50
2023-04-05T22:34:20.091Z,20.00
2023-04-05T22:36:50.628Z,19.00
2023-04-05T22:39:24.321Z,9.00
2023-04-05T22:41:55.194Z,20.25
2023-04-05T22:44:27.786Z,20.75
2023-04-05T22:46:58.218Z,15.00
2023-04-05T22:49:29.299Z,22.00
2023-04-05T22:51:59.787Z,17.50
2023-04-05T22:54:30.228Z,16.00
2023-04-05T22:57:00.697Z,11.50
2023-04-05T22:59:31.743Z,14.25
2023-04-05T23:02:02.824Z,21.50
2023-04-05T23:04:35.064Z,18.50
2023-04-05T23:07:05.803Z,21.75
2023-04-05T23:09:36.735Z,19.00
2023-04-05T23:12:08.040Z,19.75
2023-04-05T23:14:38.578Z,19.00
2023-04-05T23:17:09.405Z,20.25
2023-04-05T23:19:40.697Z,13.75
2023-04-05T23:22:11.202Z,14.25
2023-04-05T23:24:41.948Z,13.25
2023-04-05T23:27:12.398Z,15.25
2023-04-05T23:29:43.694Z,8.25
2023-04-05T23:32:14.729Z,11.00
2023-04-05T23:34:45.215Z,11.50
2023-04-05T23:37:15.761Z,10.00
2023-04-05T23:39:46.853Z,7.25
2023-04-05T23:42:21.435Z,10.00
2023-04-05T23:44:54.914Z,10.25
2023-04-05T23:50:20.692Z,10.50
2023-04-05T23:52:51.233Z,10.50
2023-04-05T23:55:21.785Z,6.25
2023-04-05T23:57:52.292Z,12.00
